Time;durP1;ratioP1;P1;durP2;ratioP2;P2;SDS_P1;SDS_P2;PMS_P1;PMS_P2;Temp;Humidity;BMP_temperature;BMP_pressure;BME280_temperature;BME280_humidity;BME280_pressure;Samples;Min_cycle;Max_cycle;Signal;HPM_P1;HPM_P2
2022/07/23 00:37:19;;;;;;;5.95;3.58;;;;;;;25.57;40.58;96704.00;4921823;29;20048;-82
2022/07/23 06:56:07;;;;;;;4.72;4.22;;;;;;;25.05;47.65;96796.78;5103918;23;20035;-82
2022/07/23 08:38:24;;;;;;;4.68;4.30;;;;;;;26.58;44.45;96852.59;4057872;27;20049;-80
2022/07/23 08:41:04;;;;;;;;;;;;;;;26.59;44.33;96863.03;4886677;29;20046;-80
2022/07/23 08:47:01;;;;;;;10.77;4.85;;;;;;;26.58;44.54;96861.44;5243694;23;20062;-79
2022/07/23 08:50:04;;;;;;;5.70;4.15;;;;;;;26.58;44.45;96861.44;4905091;29;20033;-80
2022/07/23 08:56:09;;;;;;;5.38;4.60;;;;;;;26.70;44.18;96869.91;5453966;23;20072;-80
2022/07/23 09:07:11;;;;;;;5.70;4.68;;;;;;;27.09;44.17;96865.56;5408167;23;20052;-80
2022/07/23 09:15:45;;;;;;;5.43;4.93;;;;;;;27.28;43.75;96860.34;5486397;23;20063;-80
2022/07/23 09:18:31;;;;;;;6.63;5.40;;;;;;;27.33;43.27;96868.31;4904367;29;20036;-80
2022/07/23 09:21:39;;;;;;;4.90;4.40;;;;;;;27.37;42.95;96868.56;5436145;23;20045;-79
2022/07/23 09:24:20;;;;;;;5.35;4.85;;;;;;;27.37;42.49;96866.69;5011129;23;20044;-80
2022/07/23 09:50:47;;;;;;;4.95;4.40;;;;;;;27.61;42.51;96861.34;4896401;29;20056;-81
2022/07/23 10:10:27;;;;;;;5.22;4.72;;;;;;;28.27;39.93;96853.56;5733686;23;20055;-80
2022/07/23 10:19:01;;;;;;;;;;;;;;;28.43;39.71;96854.19;4933387;23;20041;-81
2022/07/23 10:30:52;;;;;;;5.18;4.32;;;;;;;28.52;39.17;96841.72;5062792;23;20069;-80
2022/07/23 10:33:49;;;;;;;4.70;4.25;;;;;;;28.64;39.15;96850.09;4881956;29;20046;-80
2022/07/23 10:42:41;;;;;;;5.70;4.70;;;;;;;28.91;38.45;96840.59;4989716;23;20047;-80
2022/07/23 10:45:32;;;;;;;5.07;4.57;;;;;;;29.00;38.31;96846.06;4907371;29;20037;-80
2022/07/23 10:48:20;;;;;;;4.97;4.38;;;;;;;29.08;38.63;96838.13;4907465;29;20055;-80
2022/07/23 10:51:21;;;;;;;5.93;4.75;;;;;;;29.12;38.16;96839.13;4245696;23;20049;-80
2022/07/23 11:05:41;;;;;;;5.05;4.65;;;;;;;29.47;38.53;96833.41;4938751;23;20089;-82
2022/07/23 11:11:23;;;;;;;4.93;4.53;;;;;;;29.52;37.72;96841.41;5067901;23;20052;-80
2022/07/23 11:13:53;;;;;;;5.93;5.32;;;;;;;29.45;37.62;96833.72;4906372;29;20048;-80
2022/07/23 11:22:41;;;;;;;5.25;4.45;;;;;;;29.45;37.85;96824.84;5059396;23;20047;-82
2022/07/23 11:28:28;;;;;;;6.13;4.15;;;;;;;29.39;37.75;96826.88;4938133;23;20047;-81
2022/07/23 11:31:30;;;;;;;5.18;4.78;;;;;;;29.40;37.88;96838.41;4905944;29;20037;-80
2022/07/23 11:34:37;;;;;;;4.72;4.32;;;;;;;29.39;38.00;96821.50;5010355;23;20057;-82
2022/07/23 11:40:14;;;;;;;;;;;;;;;29.32;38.43;96829.13;5517409;23;20158;-81
2022/07/23 11:43:04;;;;;;;5.50;4.85;;;;;;;29.23;38.47;96822.84;4566939;27;19927;-80
2022/07/23 11:45:47;;;;;;;4.85;4.38;;;;;;;29.14;38.40;96834.28;4906047;29;20057;-80
2022/07/23 11:48:25;;;;;;;5.50;5.03;;;;;;;29.08;38.25;96830.06;4905961;29;20037;-80
2022/07/23 11:51:01;;;;;;;4.82;4.43;;;;;;;29.02;38.85;96825.88;4905930;29;20100;-79
2022/07/23 11:53:38;;;;;;;4.43;4.13;;;;;;;29.01;38.76;96826.97;4906117;29;20049;-79
2022/07/23 11:56:36;;;;;;;4.93;4.53;;;;;;;29.01;39.05;96821.59;4906078;29;20049;-84
2022/07/23 11:59:25;;;;;;;8.65;4.90;;;;;;;29.01;38.78;96816.22;5348844;23;20040;-83
2022/07/23 13:41:59;;;;;;;3.97;3.60;;;;;;;29.14;39.09;96820.84;4874925;29;19924;-74
2022/07/23 13:44:27;;;;;;;3.65;3.35;;;;;;;29.12;38.39;96822.25;4880890;29;20429;-74
2022/07/23 13:46:54;;;;;;;4.78;3.47;;;;;;;29.10;39.02;96819.03;4886934;29;20049;-76
2022/07/23 20:14:20;;;;;;;7.53;6.20;;;;;;;25.20;47.21;96998.09;2060979;23;20381;-84
2022/07/23 22:39:05;;;;;;;8.38;7.43;;;;;;;22.98;52.35;97018.34;2893882;23;20036;-81
2022/07/23 22:41:43;;;;;;;8.68;7.78;;;;;;;22.99;52.32;97017.31;4945006;29;20043;-80
2022/07/23 22:48:13;;;;;;;9.27;7.78;;;;;;;22.99;52.76;97026.09;4926320;29;20038;-81
2022/07/23 22:50:51;;;;;;;9.00;8.18;;;;;;;22.95;52.13;97024.97;4601321;23;20041;-80
2022/07/23 22:53:31;;;;;;;8.10;7.28;;;;;;;22.91;52.52;97026.53;4925546;29;20059;-81
2022/07/23 22:56:09;;;;;;;9.52;7.93;;;;;;;22.84;52.67;97024.06;4736887;23;6430355;-80
2022/07/23 22:58:39;;;;;;;8.77;7.80;;;;;;;22.80;53.22;97027.47;4923877;29;20050;-79
2022/07/23 23:01:23;;;;;;;8.98;8.07;;;;;;;22.78;53.11;97030.41;4924750;29;20104;-78
2022/07/23 23:04:06;;;;;;;8.93;8.05;;;;;;;22.77;53.49;97025.31;4925229;29;20036;-80
2022/07/23 23:09:23;;;;;;;9.52;7.82;;;;;;;22.68;53.55;97030.28;4925274;23;20084;-79
2022/07/23 23:11:51;;;;;;;8.55;7.65;;;;;;;22.63;53.53;97025.72;4899186;29;20513;-79
2022/07/23 23:14:18;;;;;;;11.20;8.40;;;;;;;22.58;53.95;97030.94;4900194;29;20087;-79
2022/07/23 23:16:46;;;;;;;8.40;7.60;;;;;;;22.55;54.03;97018.16;4899901;29;20140;-79
2022/07/23 23:19:15;;;;;;;8.82;7.90;;;;;;;22.52;54.11;97023.97;4899900;29;20048;-78
2022/07/23 23:21:42;;;;;;;8.52;7.65;;;;;;;22.49;54.09;97021.81;4899315;29;20501;-78
2022/07/23 23:24:10;;;;;;;11.00;7.90;;;;;;;22.49;54.14;97027.13;4899717;29;20112;-78
2022/07/23 23:26:37;;;;;;;9.32;7.47;;;;;;;22.51;54.22;97024.22;4899666;29;20481;-79
2022/07/23 23:29:05;;;;;;;9.02;8.00;;;;;;;22.55;54.18;97022.69;4902617;29;20049;-79
2022/07/23 23:31:33;;;;;;;10.73;7.80;;;;;;;22.54;53.82;97021.88;4906715;29;20060;-80
2022/07/23 23:34:01;;;;;;;10.25;8.32;;;;;;;22.53;53.80;97022.91;4905595;29;20049;-79
2022/07/23 23:36:30;;;;;;;8.05;7.25;;;;;;;22.51;53.69;97025.03;4901851;29;20112;-79
2022/07/23 23:38:58;;;;;;;8.82;7.95;;;;;;;22.49;54.28;97026.31;4900181;29;20056;-79
2022/07/23 23:41:25;;;;;;;8.50;7.70;;;;;;;22.46;54.37;97026.84;4899518;29;20048;-78
2022/07/23 23:43:54;;;;;;;8.40;7.60;;;;;;;22.41;54.32;97022.22;4899624;29;20044;-79
2022/07/23 23:46:22;;;;;;;9.30;8.13;;;;;;;22.38;54.49;97034.16;4905070;29;20104;-81
2022/07/23 23:48:49;;;;;;;9.95;8.10;;;;;;;22.35;54.24;97025.91;4906714;29;20079;-80
2022/07/23 23:51:17;;;;;;;9.13;8.15;;;;;;;22.33;54.33;97028.00;4906879;29;20108;-80
2022/07/23 23:53:46;;;;;;;9.25;8.13;;;;;;;22.32;54.48;97026.38;4901991;29;20099;-79
2022/07/23 23:56:13;;;;;;;8.30;7.50;;;;;;;22.33;54.57;97022.69;4900309;29;20124;-79
2022/07/23 23:58:41;;;;;;;8.70;7.63;;;;;;;22.36;54.33;97028.28;4899333;29;20056;-78
